ADDS METAR Data INFO
IDs: Format: Raw Decoded Include TAF

Data at: 0349 UTC 20 Feb 2018

KSUS 200254Z 19011G22KT 10SM BKN060 20/15 A2985 RMK AO2 SLP105 T02000150 53008
KSUS 200154Z 17012G21KT 10SM FEW065 20/14 A2983 RMK AO2 SLP096 T02000144
KSUS 200054Z 21008G18KT 10SM BKN050 20/14 A2983 RMK AO2 SLP098 T02000139
KSUS 192354Z COR 16004KT 10SM BKN049 OVC180 19/14 A2983 RMK AO2 SLP097 60038 T01940144 10194 20161 57006
KSUS 192254Z 08006KT 10SM OVC048 16/16 A2983 RMK AO2 SLP100 T01610161
KSUS 192154Z 06003KT 10SM OVC039 17/16 A2984 RMK AO2 SLP103 T01720156
KSUS 192054Z 00000KT 9SM BKN039 OVC047 17/16 A2985 RMK AO2 RAE11B32E41 SLP105 P0000 60038 T01720156 50001
KSUS 191954Z 19006KT 6SM -RA BR FEW037 FEW055 OVC095 16/16 A2985 RMK AO2 LTG DSNT NE TSE21 SLP106 P0026 T01610156
KSUS 191939Z 17007KT 140V200 3SM RA BR FEW037 BKN049 OVC090 17/16 A2985 RMK AO2 LTG DSNT N-E TSE21 P0023 T01670156
KSUS 191930Z 19006KT 5SM VCTS -RA BR SCT037 OVC045 16/16 A2986 RMK AO2 LTG DSNT N-E TSE21 P0020 T01610156
KSUS 191921Z 20009G20KT 2SM VCTS RA BR BKN045 BKN050 OVC070 16/16 A2986 RMK AO2 LTG DSNT NE-S TSE21 P0019 T01610156
KSUS 191910Z 19015G24KT 1 1/2SM R08R/5000VP6000FT +TSRA BR FEW032 BKN045 OVC070 16/15 A2986 RMK AO2 LTG DSNT ALQDS P0013 T01610150
KSUS 191854Z 18012G18KT 2 1/2SM TSRA BR FEW030 BKN065 OVC090 16/15 A2985 RMK AO2 PK WND 17027/1800 LTG DSNT E AND SW AND W TSE44B49 SLP107 P0012 T01610150
KSUS 191850Z 18010G17KT 2 1/2SM TSRA BR FEW030 BKN065 OVC085 16/15 A2985 RMK AO2 PK WND 17027/1800 LTG DSNT SW TSE44B49 P0009
KSUS 191754Z 19014G27KT 10SM -RA FEW029 OVC100 17/14 A2985 RMK AO2 PK WND 19030/1714 SLP105 P0002 60043 T01670144 10167 20150 50002
KSUS 191654Z 19013G25KT 6SM -RA BR SCT030 BKN090 OVC110 16/14 A2987 RMK AO2 PK WND 21028/1623 RAB00 SLP113 P0011 T01610144
KSUS 191554Z 21012G22KT 9SM FEW031 SCT085 BKN100 16/14 A2987 RMK AO2 PK WND 17034/1509 RAE27 TSE49 PRESRR SLP113 P0003 T01610139
KSUS 191454Z 19015G29KT 5SM -TSRA BR SCT030 SCT090 OVC110 16/14 A2984 RMK AO2 PK WND 20029/1447 SLP104 P0013 60027 T01560139 50007
KSUS 191354Z 19013G22KT 3SM TSRA BR SCT060 BKN080 OVC095 15/14 A2985 RMK AO2 LTG DSNT ALQDS RAB19 TSB1255 SLP107 P0014 T01500139
KSUS 191301Z 21011G22KT 10SM TS SCT016 BKN060 BKN075 16/13 A2982 RMK AO2 LTG DSNT ALQDS TSB1255 PRESRR T01560133
KSUS 191254Z 21009G22KT 10SM BKN030 BKN080 16/13 A2981 RMK AO2 PK WND 19028/1212 LTG DSNT ALQDS RAB03E16 SLP093 P0000 T01560133
KSUS 191154Z 19015G29KT 10SM FEW019 BKN090 OVC110 16/13 A2982 RMK AO2 PK WND 20029/1154 LTG DSNT W-N RAB01E44 SLP096 P0001 60001 70001 T01560133 10161 20111 56013
KSUS 191130Z AUTO 18013G21KT 10SM -RA SCT023 BKN080 OVC100 16/14 A2982 RMK AO2 LTG DSNT N AND W RAB01 P0001 T01560139
KSUS 191054Z AUTO 19009KT 10SM BKN021 OVC028 16/13 A2983 RMK AO2 LTG DSNT NW SLP099 T01560128
KSUS 190954Z AUTO 00000KT 10SM OVC016 14/12 A2984 RMK AO2 SLP102 T01440117
KSUS 190854Z AUTO VRB06KT 10SM OVC017 13/11 A2986 RMK AO2 SLP109 T01330106 57006
KSUS 190754Z AUTO 00000KT 10SM OVC017 13/10 A2986 RMK AO2 SLP112 T01280100
KSUS 190654Z AUTO 19004KT 10SM OVC019 12/08 A2987 RMK AO2 SLP116 T01170083
KSUS 190554Z AUTO 20009G15KT 10SM OVC022 12/07 A2988 RMK AO2 SLP118 T01170072 10117 20094 401331061 55010
KSUS 190454Z 20006KT 10SM BKN023 BKN044 11/06 A2987 RMK AO2 SLP117 T01060056
KSUS 190430Z VRB03KT 10SM BKN024 BKN032 OVC050 11/05 A2988 RMK AO2 T01060050
KSUS 190354Z VRB04KT 10SM FEW033 BKN040 BKN048 10/04 A2987 RMK AO2 SLP116 T01000039
KSUS 190254Z 10SM FEW045 SCT080 10/03 A2991 RMK AO2 SLP131 T01000028 57006
KSUS 190154Z 17009G15KT 10SM CLR 10/01 A2990 RMK AO2 SLP132 T01000011
KSUS 190054Z 17006KT 10SM CLR 11/M01 A2993 RMK AO2 SLP140 T01061011
KSUS 182354Z 16009G17KT 10SM SCT050 BKN200 11/M03 A2992 RMK AO2 SLP139 T01111033 10133 20100 56028
KSUS 182254Z 14005KT 10SM BKN180 12/M04 A2995 RMK AO2 SLP146 T01221044
KSUS 182154Z 16011KT 10SM CLR 13/M05 A2998 RMK AO2 SLP158 T01281050
KSUS 182054Z 17007G19KT 10SM OVC200 13/M05 A3001 RMK AO2 PK WND 18034/2021 SLP166 T01331050 56052
KSUS 181954Z 14008KT 10SM CLR 12/M01 A3006 RMK AO2 SLP183 T01221011
KSUS 181854Z 13008G18KT 090V160 10SM CLR 11/M02 A3010 RMK AO2 SLP199 T01061017
KSUS 181754Z 15008G18KT 120V180 10SM CLR 09/M02 A3016 RMK AO2 SLP220 T00941022 10100 21056 58025
KSUS 181654Z 15007G19KT 10SM CLR 09/M02 A3021 RMK AO2 SLP235 T00891022
KSUS 181554Z 15008G17KT 10SM SCT250 07/00 A3022 RMK AO2 SLP239 T00720000